createdAt,value
2023-04-13T00:00:46.785Z,98625.16
2023-04-13T00:03:17.480Z,98623.94
2023-04-13T00:05:46.762Z,98616.16
2023-04-13T00:08:14.281Z,98625.13
2023-04-13T00:10:41.815Z,98621.06
2023-04-13T00:13:11.137Z,98634.53
2023-04-13T00:15:42.223Z,98617.78
2023-04-13T00:18:10.662Z,98618.19
2023-04-13T00:20:39.068Z,98614.94
2023-04-13T00:23:05.977Z,98623.06
2023-04-13T00:25:32.981Z,98613.47
2023-04-13T00:28:03.321Z,98617.34
2023-04-13T00:30:30.532Z,98616.53
2023-04-13T00:32:57.559Z,98608.16
2023-04-13T00:35:25.286Z,98616.09
2023-04-13T00:37:55.396Z,98617.13
2023-04-13T00:40:24.489Z,98608.56
2023-04-13T00:42:51.761Z,98624.69
2023-04-13T00:45:19.850Z,98615.91
2023-04-13T00:47:48.512Z,98621.38
2023-04-13T00:50:21.072Z,98627.50
2023-04-13T00:52:49.245Z,98636.50
2023-04-13T00:55:20.870Z,98619.75
2023-04-13T00:57:50.120Z,98630.56
2023-04-13T01:00:18.272Z,98630.78
2023-04-13T01:02:45.308Z,98633.63
2023-04-13T01:05:15.346Z,98629.53
2023-04-13T01:08:13.606Z,98630.34
2023-04-13T01:11:04.248Z,98633.41
2023-04-13T01:13:42.253Z,98636.25
2023-04-13T01:16:30.993Z,98631.13
2023-04-13T01:18:59.413Z,98630.53
2023-04-13T01:21:30.324Z,98630.94
2023-04-13T01:24:20.159Z,98636.22
2023-04-13T01:27:20.555Z,98631.91
2023-04-13T01:29:49.478Z,98632.34
2023-04-13T01:32:17.730Z,98623.56
2023-04-13T01:34:45.892Z,98629.06
2023-04-13T01:37:12.919Z,98627.41
2023-04-13T01:39:40.073Z,98643.31
2023-04-13T01:42:22.786Z,98644.16
2023-04-13T01:44:51.620Z,98637.03
2023-04-13T01:47:23.577Z,98633.56
2023-04-13T01:50:18.303Z,98624.59
2023-04-13T01:53:00.993Z,98635.34
2023-04-13T01:55:29.403Z,98637.03
2023-04-13T01:58:01.861Z,98631.91
2023-04-13T02:00:35.811Z,98638.00
2023-04-13T02:03:08.450Z,98641.69
2023-04-13T02:05:38.810Z,98632.91
2023-04-13T02:08:08.186Z,98632.72
2023-04-13T02:10:42.064Z,98644.34
2023-04-13T02:13:11.649Z,98645.16
2023-04-13T02:15:39.639Z,98636.38
2023-04-13T02:18:07.743Z,98641.69
2023-04-13T02:20:43.488Z,98642.50
2023-04-13T02:23:17.786Z,98650.66
2023-04-13T02:25:47.900Z,98637.41
2023-04-13T02:28:17.519Z,98646.97
2023-04-13T02:30:47.022Z,98635.34
2023-04-13T02:33:13.967Z,98643.31
2023-04-13T02:35:41.205Z,98646.59
2023-04-13T02:38:10.501Z,98630.28
2023-04-13T02:40:38.674Z,98622.97
2023-04-13T02:43:07.030Z,98626.44
2023-04-13T02:45:37.485Z,98624.41
2023-04-13T02:48:06.863Z,98626.84
2023-04-13T02:50:34.183Z,98633.63
2023-04-13T02:53:07.729Z,98630.75
2023-04-13T02:55:35.412Z,98632.19
2023-04-13T02:58:09.350Z,98632.78
2023-04-13T03:00:37.419Z,98635.88
2023-04-13T03:03:09.584Z,98634.84
2023-04-13T03:05:45.977Z,98641.78
2023-04-13T03:08:17.419Z,98642.44
2023-04-13T03:11:03.883Z,98642.22
2023-04-13T03:13:31.244Z,98639.97
2023-04-13T03:16:00.367Z,98641.81
2023-04-13T03:18:27.317Z,98637.56
2023-04-13T03:20:54.732Z,98634.91
2023-04-13T03:23:24.327Z,98643.47
2023-04-13T03:25:51.518Z,98647.56
2023-04-13T03:28:22.323Z,98639.41
2023-04-13T03:30:49.533Z,98641.03
2023-04-13T03:33:16.592Z,98636.34
2023-04-13T03:35:43.572Z,98642.28
2023-04-13T03:38:19.451Z,98643.91
2023-04-13T03:40:48.507Z,98646.38
2023-04-13T03:43:16.103Z,98646.16
2023-04-13T03:45:48.511Z,98646.00
2023-04-13T03:48:16.917Z,98656.59
2023-04-13T03:50:43.968Z,98649.63
2023-04-13T03:53:13.403Z,98651.28
2023-04-13T03:55:43.450Z,98651.91
2023-04-13T03:58:11.156Z,98653.75
2023-04-13T04:00:38.127Z,98657.00
2023-04-13T04:03:14.255Z,98654.56
2023-04-13T04:05:53.624Z,98646.81
2023-04-13T04:08:21.020Z,98653.75
2023-04-13T04:10:48.592Z,98642.09
2023-04-13T04:13:17.492Z,98634.97
2023-04-13T04:15:48.709Z,98649.25
2023-04-13T04:18:16.350Z,98637.81
2023-04-13T04:20:43.753Z,98649.47
2023-04-13T04:23:13.854Z,98644.53
2023-04-13T04:25:46.803Z,98647.19
2023-04-13T04:28:17.834Z,98656.38
2023-04-13T04:30:53.774Z,98661.88
2023-04-13T04:33:24.090Z,98665.53
2023-04-13T04:35:54.005Z,98660.63
2023-04-13T04:38:26.698Z,98664.31
2023-04-13T04:40:57.604Z,98674.13
2023-04-13T04:43:29.576Z,98668.00
2023-04-13T04:46:03.001Z,98672.28
2023-04-13T04:48:31.669Z,98680.22
2023-04-13T04:50:59.879Z,98681.06
2023-04-13T04:53:32.417Z,98687.16
2023-04-13T04:56:00.698Z,98682.69
2023-04-13T04:58:47.128Z,98703.91
2023-04-13T05:01:14.482Z,98704.13
2023-04-13T05:03:42.080Z,98706.75
2023-04-13T05:06:20.675Z,98713.72
2023-04-13T05:08:47.610Z,98711.66
2023-04-13T05:11:14.742Z,98696.56
2023-04-13T05:13:42.082Z,98709.81
2023-04-13T05:16:16.443Z,98700.66
2023-04-13T05:18:45.786Z,98713.13
2023-04-13T05:21:22.877Z,98708.63
2023-04-13T05:23:56.857Z,98709.44
2023-04-13T05:26:25.445Z,98712.09
2023-04-13T05:28:52.969Z,98717.00
2023-04-13T05:31:24.145Z,98712.50
2023-04-13T05:33:51.400Z,98716.81
2023-04-13T05:36:18.396Z,98728.03
2023-04-13T05:38:46.175Z,98725.41
2023-04-13T05:41:15.632Z,98731.31
2023-04-13T05:43:44.368Z,98730.28
2023-04-13T05:46:11.496Z,98742.53
2023-04-13T05:48:39.245Z,98743.38
2023-04-13T05:51:08.548Z,98744.00
2023-04-13T05:53:36.476Z,98748.50
2023-04-13T05:56:03.611Z,98747.25
2023-04-13T05:58:32.419Z,98754.19
2023-04-13T06:01:13.342Z,98762.00
2023-04-13T06:03:41.169Z,98759.13
2023-04-13T06:06:08.662Z,98768.53
2023-04-13T06:08:36.461Z,98772.22
2023-04-13T06:11:03.521Z,98763.25
2023-04-13T06:13:33.801Z,98770.63
2023-04-13T06:16:00.897Z,98781.47
2023-04-13T06:18:28.819Z,98782.47
2023-04-13T06:20:57.755Z,98774.75
2023-04-13T06:23:25.140Z,98772.31
2023-04-13T06:25:56.770Z,98778.03
2023-04-13T06:28:37.529Z,98779.28
2023-04-13T06:31:04.896Z,98782.53
2023-04-13T06:33:32.042Z,98783.78
2023-04-13T06:35:59.131Z,98769.47
2023-04-13T06:38:27.301Z,98778.69
2023-04-13T06:41:05.479Z,98762.97
2023-04-13T06:43:35.723Z,98781.16
2023-04-13T06:46:22.034Z,98770.13
2023-04-13T06:48:51.462Z,98766.03
2023-04-13T06:51:23.196Z,98761.34
2023-04-13T06:53:51.415Z,98767.06
2023-04-13T06:56:18.361Z,98762.16
2023-04-13T06:58:47.097Z,98762.97
2023-04-13T07:01:16.143Z,98772.41
2023-04-13T07:03:44.457Z,98771.16
2023-04-13T07:06:12.392Z,98768.72
2023-04-13T07:08:40.523Z,98784.66
2023-04-13T07:11:07.983Z,98785.25
2023-04-13T07:13:38.242Z,98794.25
2023-04-13T07:16:08.891Z,98778.53
2023-04-13T07:18:38.562Z,98790.38
2023-04-13T07:21:06.645Z,98787.47
2023-04-13T07:23:53.664Z,98785.19
2023-04-13T07:26:21.002Z,98795.81
2023-04-13T07:28:47.994Z,98784.53
2023-04-13T07:31:15.231Z,98769.03
2023-04-13T07:33:46.054Z,98785.53
2023-04-13T07:36:15.187Z,98778.38
2023-04-13T07:38:43.904Z,98785.72
2023-04-13T07:41:21.887Z,98785.94
2023-04-13T07:43:51.622Z,98786.09
2023-04-13T07:46:20.336Z,98790.41
2023-04-13T07:48:49.767Z,98786.53
2023-04-13T07:51:23.479Z,98793.50
2023-04-13T07:53:52.592Z,98790.84
2023-04-13T07:56:21.518Z,98783.31
2023-04-13T07:58:50.826Z,98792.50
2023-04-13T08:01:18.478Z,98796.19
2023-04-13T08:03:45.861Z,98796.41
2023-04-13T08:06:21.044Z,98806.25
2023-04-13T08:08:48.244Z,98803.19
2023-04-13T08:11:16.166Z,98799.72
2023-04-13T08:13:45.590Z,98796.03
2023-04-13T08:16:13.005Z,98801.38
2023-04-13T08:18:42.369Z,98799.53
2023-04-13T08:21:12.117Z,98795.88
2023-04-13T08:23:44.375Z,98812.25
2023-04-13T08:26:22.067Z,98801.84
2023-04-13T08:28:50.854Z,98807.16
2023-04-13T08:31:17.924Z,98811.44
2023-04-13T08:33:54.968Z,98812.03
2023-04-13T08:36:24.322Z,98816.34
2023-04-13T08:38:57.760Z,98823.09
2023-04-13T08:41:25.281Z,98826.56
2023-04-13T08:43:55.723Z,98833.31
2023-04-13T08:46:26.964Z,98820.25
2023-04-13T08:48:59.279Z,98814.31
2023-04-13T08:51:36.288Z,98817.56
2023-04-13T08:54:03.853Z,98817.16
2023-04-13T08:56:45.383Z,98818.41
2023-04-13T08:59:19.569Z,98820.66
2023-04-13T09:01:48.761Z,98818.00
2023-04-13T09:04:20.284Z,98822.31
2023-04-13T09:06:51.281Z,98824.34
2023-04-13T09:09:20.545Z,98836.81
2023-04-13T09:11:50.895Z,98835.63
2023-04-13T09:14:20.260Z,98829.28
2023-04-13T09:16:48.216Z,98833.97
2023-04-13T09:19:32.952Z,98838.28
2023-04-13T09:22:14.200Z,98847.25
2023-04-13T09:24:42.032Z,98841.31
2023-04-13T09:27:20.366Z,98837.03
2023-04-13T09:29:56.942Z,98837.41
2023-04-13T09:32:26.891Z,98855.03
2023-04-13T09:35:05.842Z,98840.94
2023-04-13T09:37:34.083Z,98849.91
2023-04-13T09:40:27.821Z,98860.97
2023-04-13T09:43:01.238Z,98860.53
2023-04-13T09:45:36.343Z,98862.59
2023-04-13T09:48:05.145Z,98856.69
2023-04-13T09:50:33.828Z,98869.34
2023-04-13T09:53:05.656Z,98866.50
2023-04-13T09:55:36.928Z,98865.69
2023-04-13T09:58:14.556Z,98857.50
2023-04-13T10:00:46.246Z,98864.66
2023-04-13T10:03:15.329Z,98871.03
2023-04-13T10:05:55.016Z,98850.56
2023-04-13T10:08:36.899Z,98846.44
2023-04-13T10:11:13.414Z,98855.69
2023-04-13T10:13:55.157Z,98854.69
2023-04-13T10:16:44.503Z,98857.94
2023-04-13T10:19:20.083Z,98848.75
2023-04-13T10:21:51.841Z,98852.84
2023-04-13T10:24:20.929Z,98852.44
2023-04-13T10:26:48.110Z,98848.94
2023-04-13T10:29:16.452Z,98848.31
2023-04-13T10:31:48.667Z,98840.34
2023-04-13T10:34:27.163Z,98852.00
2023-04-13T10:36:57.945Z,98844.81
2023-04-13T10:39:38.742Z,98845.59
2023-04-13T10:42:10.383Z,98840.66
2023-04-13T10:44:51.461Z,98841.84
2023-04-13T10:47:20.897Z,98843.03
2023-04-13T10:49:50.424Z,98846.50
2023-04-13T10:52:17.546Z,98854.88
2023-04-13T10:54:45.074Z,98858.13
2023-04-13T10:57:12.714Z,98850.50
2023-04-13T10:59:58.905Z,98853.16
2023-04-13T11:02:34.278Z,98845.75
2023-04-13T11:05:01.867Z,98845.91
2023-04-13T11:07:29.572Z,98845.72
2023-04-13T11:10:03.276Z,98844.22
2023-04-13T11:12:31.073Z,98851.63
2023-04-13T11:14:59.691Z,98843.41
2023-04-13T11:17:26.992Z,98843.63
2023-04-13T11:19:56.812Z,98844.44
2023-04-13T11:22:27.684Z,98844.03
2023-04-13T11:25:06.312Z,98835.63
2023-04-13T11:27:33.225Z,98840.38
2023-04-13T11:30:05.838Z,98839.34
2023-04-13T11:32:43.386Z,98838.50
2023-04-13T11:35:17.254Z,98839.91
2023-04-13T11:37:53.865Z,98845.41
2023-04-13T11:40:27.893Z,98839.03
2023-04-13T11:42:59.831Z,98836.16
2023-04-13T11:45:29.803Z,98832.84
2023-04-13T11:48:17.988Z,98830.72
2023-04-13T11:50:46.313Z,98831.13
2023-04-13T11:53:14.181Z,98840.47
2023-04-13T11:55:52.562Z,98825.00
2023-04-13T11:58:21.621Z,98826.16
2023-04-13T12:00:49.108Z,98825.06
2023-04-13T12:03:34.320Z,98828.72
2023-04-13T12:06:06.839Z,98836.44
2023-04-13T12:08:34.239Z,98832.72
2023-04-13T12:13:50.350Z,98823.66
2023-04-13T12:19:09.162Z,98819.06
2023-04-13T12:21:37.268Z,98812.25
2023-04-13T12:24:06.065Z,98807.66
2023-04-13T12:29:09.094Z,98811.00
2023-04-13T12:31:39.810Z,98813.03
2023-04-13T12:34:10.436Z,98805.75
2023-04-13T12:36:37.433Z,98815.97
2023-04-13T12:39:04.914Z,98805.00
2023-04-13T12:41:33.810Z,98805.19
2023-04-13T12:44:01.311Z,98805.66
2023-04-13T12:46:28.865Z,98806.50
2023-04-13T12:48:56.254Z,98810.97
2023-04-13T12:51:23.196Z,98814.56
2023-04-13T12:53:50.270Z,98799.19
2023-04-13T12:56:17.288Z,98798.75
2023-04-13T12:58:44.322Z,98796.03
2023-04-13T13:01:14.420Z,98792.75
2023-04-13T13:03:41.731Z,98787.38
2023-04-13T13:06:08.924Z,98792.47
2023-04-13T13:08:39.271Z,98787.50
2023-04-13T13:11:08.208Z,98785.22
2023-04-13T13:13:35.316Z,98789.53
2023-04-13T13:16:02.332Z,98783.59
2023-04-13T13:18:38.961Z,98792.13
2023-04-13T13:21:17.260Z,98798.50
2023-04-13T13:23:45.270Z,98791.22
2023-04-13T13:28:42.442Z,98793.03
2023-04-13T13:31:09.402Z,98786.13
2023-04-13T13:33:36.651Z,98791.63
2023-04-13T13:36:03.663Z,98784.06
2023-04-13T13:38:30.845Z,98790.44
2023-04-13T13:40:57.805Z,98791.31
2023-04-13T13:43:24.837Z,98787.06
2023-04-13T13:45:51.909Z,98792.06
2023-04-13T13:48:19.154Z,98780.34
2023-04-13T13:50:55.853Z,98773.84
2023-04-13T13:53:23.635Z,98775.91
2023-04-13T13:55:50.856Z,98780.72
2023-04-13T13:58:17.820Z,98773.59
2023-04-13T14:00:44.822Z,98780.03
2023-04-13T14:03:14.901Z,98785.41
2023-04-13T14:05:45.505Z,98792.56
2023-04-13T14:08:12.459Z,98804.28
2023-04-13T14:10:42.772Z,98810.94
2023-04-13T14:13:10.037Z,98836.06
2023-04-13T14:15:37.064Z,98855.72
2023-04-13T14:18:10.856Z,98877.72
2023-04-13T14:20:39.908Z,98888.00
2023-04-13T14:23:08.983Z,98886.91
2023-04-13T14:25:37.145Z,98884.66
2023-04-13T14:28:04.160Z,98880.94
2023-04-13T14:30:31.235Z,98895.19
2023-04-13T14:32:58.458Z,98887.34
2023-04-13T14:35:25.778Z,98886.78
2023-04-13T14:37:53.044Z,98872.59
2023-04-13T14:40:21.876Z,98844.03
2023-04-13T14:42:50.800Z,98831.53
2023-04-13T14:45:18.422Z,98847.84
2023-04-13T14:47:45.489Z,98859.75
2023-04-13T14:50:13.840Z,98843.19
2023-04-13T14:52:44.586Z,98836.66
2023-04-13T14:55:12.166Z,98839.53
2023-04-13T14:57:40.122Z,98838.47
2023-04-13T15:00:16.174Z,98842.38
2023-04-13T15:02:43.295Z,98836.44
2023-04-13T15:05:10.431Z,98832.75
2023-04-13T15:07:38.018Z,98834.56
2023-04-13T15:10:08.309Z,98835.78
2023-04-13T15:12:35.266Z,98835.97
2023-04-13T15:15:02.222Z,98834.09
2023-04-13T15:17:29.761Z,98836.53
2023-04-13T15:19:56.897Z,98842.47
2023-04-13T15:22:24.165Z,98848.38
2023-04-13T15:24:51.278Z,98846.53
2023-04-13T15:27:18.265Z,98848.78
2023-04-13T15:29:45.514Z,98847.09
2023-04-13T15:32:12.518Z,98857.72
2023-04-13T15:34:40.471Z,98858.59
2023-04-13T15:37:07.446Z,98864.50
2023-04-13T15:39:34.369Z,98868.78
2023-04-13T15:42:02.172Z,98871.44
2023-04-13T15:44:29.140Z,98875.53
2023-04-13T15:46:56.056Z,98867.38
2023-04-13T15:49:23.037Z,98875.34
2023-04-13T15:51:50.014Z,98871.69
2023-04-13T15:54:16.943Z,98866.38
2023-04-13T15:56:44.356Z,98859.63
2023-04-13T15:59:11.357Z,98867.22
2023-04-13T16:01:46.793Z,98861.91
2023-04-13T16:04:14.914Z,98859.25
2023-04-13T16:06:42.565Z,98863.13
2023-04-13T16:09:10.102Z,98862.72
2023-04-13T16:11:39.860Z,98868.28
2023-04-13T16:14:08.960Z,98869.91
2023-04-13T16:16:46.551Z,98863.56
2023-04-13T16:19:13.953Z,98870.50
2023-04-13T16:21:44.196Z,98873.78
2023-04-13T16:24:12.020Z,98873.78
2023-04-13T16:26:39.622Z,98877.09
2023-04-13T16:29:07.993Z,98875.03
2023-04-13T16:31:35.038Z,98877.09
2023-04-13T16:34:06.862Z,98875.88
2023-04-13T16:36:39.012Z,98885.13
2023-04-13T16:39:10.856Z,98884.72
2023-04-13T16:41:39.257Z,98891.91
2023-04-13T16:44:06.215Z,98902.78
2023-04-13T16:46:33.224Z,98900.13
2023-04-13T16:49:00.448Z,98909.94
2023-04-13T16:51:27.873Z,98916.09
2023-04-13T16:53:54.824Z,98911.97
2023-04-13T16:56:22.299Z,98914.84
2023-04-13T16:58:50.031Z,98916.47
2023-04-13T17:01:17.143Z,98909.94
2023-04-13T17:03:44.139Z,98912.19
2023-04-13T17:06:11.484Z,98912.19
2023-04-13T17:08:38.467Z,98924.69
2023-04-13T17:11:07.096Z,98931.63
2023-04-13T17:13:36.141Z,98925.09
2023-04-13T17:16:04.285Z,98933.47
2023-04-13T17:18:31.259Z,98930.00
2023-04-13T17:20:58.226Z,98923.84
2023-04-13T17:23:25.274Z,98925.47
2023-04-13T17:25:53.109Z,98929.94
2023-04-13T17:28:23.176Z,98937.69
2023-04-13T17:30:50.314Z,98943.81
2023-04-13T17:33:17.362Z,98945.63
2023-04-13T17:35:44.307Z,98944.41
2023-04-13T17:38:11.232Z,98948.69
2023-04-13T17:40:38.145Z,98953.78
2023-04-13T17:43:07.367Z,98954.34
2023-04-13T17:45:34.572Z,98961.94
2023-04-13T17:48:01.767Z,98968.47
2023-04-13T17:50:30.974Z,98969.88
2023-04-13T17:52:58.095Z,98974.75
2023-04-13T17:55:24.997Z,98966.97
2023-04-13T17:57:51.924Z,98967.19
2023-04-13T18:00:19.221Z,98958.41
2023-04-13T18:02:50.212Z,98959.78
2023-04-13T18:05:18.258Z,98961.22
2023-04-13T18:07:45.449Z,98962.25
2023-04-13T18:10:12.569Z,98960.38
2023-04-13T18:12:40.947Z,98961.78
2023-04-13T18:15:09.012Z,98973.19
2023-04-13T18:17:37.933Z,98970.94
2023-04-13T18:20:06.101Z,98982.13
2023-04-13T18:22:33.284Z,98983.53
2023-04-13T18:25:00.350Z,98992.91
2023-04-13T18:27:27.552Z,98989.63
2023-04-13T18:29:57.721Z,98997.16
2023-04-13T18:32:24.683Z,99000.84
2023-04-13T18:34:52.224Z,99006.34
2023-04-13T18:37:19.197Z,99015.94
2023-04-13T18:39:46.222Z,99024.72
2023-04-13T18:42:13.341Z,99021.06
2023-04-13T18:44:40.429Z,99022.69
2023-04-13T18:47:07.453Z,99025.16
2023-04-13T18:49:34.394Z,99022.50
2023-04-13T18:52:01.390Z,99016.56
2023-04-13T18:54:29.247Z,99014.31
2023-04-13T18:56:56.180Z,99017.13
2023-04-13T18:59:23.163Z,99014.88
2023-04-13T19:01:51.117Z,99021.38
2023-04-13T19:04:18.202Z,99021.56
2023-04-13T19:06:45.350Z,99017.69
2023-04-13T19:09:12.329Z,99016.41
2023-04-13T19:11:49.928Z,99003.53
2023-04-13T19:14:16.936Z,99010.84
2023-04-13T19:16:45.537Z,98996.97
2023-04-13T19:19:15.057Z,98992.03
2023-04-13T19:21:42.089Z,98989.75
2023-04-13T19:24:12.923Z,98985.66
2023-04-13T19:26:40.920Z,98989.50
2023-04-13T19:29:13.159Z,98985.22
2023-04-13T19:31:45.306Z,98985.63
2023-04-13T19:34:12.543Z,98999.88
2023-04-13T19:36:40.405Z,98996.59
2023-04-13T19:39:08.465Z,98999.44
2023-04-13T19:41:38.426Z,98999.44
2023-04-13T19:44:07.761Z,99004.13
2023-04-13T19:46:35.572Z,99000.66
2023-04-13T19:49:02.864Z,98994.50
2023-04-13T19:51:32.219Z,99001.84
2023-04-13T19:54:01.823Z,98999.38
2023-04-13T19:56:34.386Z,98997.75
2023-04-13T19:59:06.044Z,98994.66
2023-04-13T20:01:33.883Z,98994.84
2023-04-13T20:04:06.459Z,98997.69
2023-04-13T20:06:34.062Z,98993.56
2023-04-13T20:09:12.251Z,98997.22
2023-04-13T20:11:41.601Z,98994.59
2023-04-13T20:14:11.335Z,98998.25
2023-04-13T20:16:38.604Z,98998.25
2023-04-13T20:19:06.700Z,99000.91
2023-04-13T20:21:34.294Z,99000.72
2023-04-13T20:24:02.187Z,99005.84
2023-04-13T20:26:31.373Z,99002.19
2023-04-13T20:29:04.167Z,99005.44
2023-04-13T20:31:33.410Z,99005.25
2023-04-13T20:34:02.925Z,99015.69
2023-04-13T20:36:31.251Z,99013.66
2023-04-13T20:38:59.328Z,99023.88
2023-04-13T20:41:29.810Z,99018.22
2023-04-13T20:43:56.861Z,99019.84
2023-04-13T20:46:25.157Z,99030.06
2023-04-13T20:48:52.780Z,99028.06
2023-04-13T20:51:22.668Z,99024.41
2023-04-13T20:53:50.021Z,99026.25
2023-04-13T20:56:19.055Z,99017.47
2023-04-13T20:58:47.920Z,99021.94
2023-04-13T21:01:15.421Z,99021.09
2023-04-13T21:03:42.781Z,99022.78
2023-04-13T21:06:09.932Z,99022.78
2023-04-13T21:08:36.911Z,99025.59
2023-04-13T21:11:03.825Z,99011.69
2023-04-13T21:13:30.854Z,99010.88
2023-04-13T21:15:57.904Z,99021.50
2023-04-13T21:18:24.824Z,99017.19
2023-04-13T21:20:51.836Z,99018.22
2023-04-13T21:23:18.907Z,99022.72
2023-04-13T21:25:47.530Z,99029.19
2023-04-13T21:28:14.553Z,99025.72
2023-04-13T21:30:41.486Z,99020.63
2023-04-13T21:33:08.577Z,99017.34
2023-04-13T21:35:35.813Z,99027.94
2023-04-13T21:38:04.948Z,99020.16
2023-04-13T21:40:34.603Z,99014.03
2023-04-13T21:43:02.373Z,99013.22
2023-04-13T21:45:29.602Z,99009.94
2023-04-13T21:47:56.632Z,99010.13
2023-04-13T21:50:23.876Z,99009.47
2023-04-13T21:52:50.807Z,99012.53
2023-04-13T21:55:20.355Z,99013.53
2023-04-13T21:57:48.316Z,99015.56
2023-04-13T22:00:17.788Z,99013.09
2023-04-13T22:02:44.921Z,99010.63
2023-04-13T22:05:12.258Z,99011.66
2023-04-13T22:07:43.282Z,99012.66
2023-04-13T22:10:11.275Z,99012.84
2023-04-13T22:12:38.333Z,99013.66
2023-04-13T22:15:06.116Z,99018.31
2023-04-13T22:17:33.260Z,99012.19
2023-04-13T22:20:00.585Z,99018.72
2023-04-13T22:22:27.514Z,99023.19
2023-04-13T22:24:54.877Z,99015.44
2023-04-13T22:27:21.919Z,99018.25
2023-04-13T22:29:48.853Z,99014.97
2023-04-13T22:32:16.565Z,99021.50
2023-04-13T22:34:43.651Z,99018.19
2023-04-13T22:37:12.206Z,99015.91
2023-04-13T22:39:42.088Z,99019.31
2023-04-13T22:42:09.076Z,99021.34
2023-04-13T22:44:36.152Z,99025.34
2023-04-13T22:47:04.387Z,99022.44
2023-04-13T22:49:31.631Z,99024.84
2023-04-13T22:52:00.228Z,99029.69
2023-04-13T22:54:27.253Z,99041.66
2023-04-13T22:56:54.195Z,99035.09
2023-04-13T22:59:21.102Z,99034.00
2023-04-13T23:01:48.237Z,99036.38
2023-04-13T23:04:16.277Z,99034.06
2023-04-13T23:06:43.411Z,99037.06
2023-04-13T23:09:10.355Z,99041.09
2023-04-13T23:11:37.592Z,99042.28
2023-04-13T23:14:06.508Z,99048.41
2023-04-13T23:16:34.841Z,99051.72
2023-04-13T23:19:02.238Z,99057.00
2023-04-13T23:21:29.612Z,99047.75
2023-04-13T23:23:56.784Z,99048.97
2023-04-13T23:26:23.761Z,99055.25
2023-04-13T23:28:50.830Z,99049.13
2023-04-13T23:31:20.093Z,99055.09
2023-04-13T23:33:47.122Z,99050.41
2023-04-13T23:36:14.178Z,99053.88
2023-04-13T23:38:41.088Z,99057.00
2023-04-13T23:41:07.996Z,99058.66
2023-04-13T23:43:34.920Z,99061.28
2023-04-13T23:46:01.910Z,99062.94
2023-04-13T23:48:28.981Z,99067.22
2023-04-13T23:50:57.171Z,99073.34
2023-04-13T23:53:24.243Z,99064.56
2023-04-13T23:55:51.158Z,99070.88
2023-04-13T23:58:18.103Z,99069.25
